createdAt,value
2023-02-09T00:00:02.227Z,74
2023-02-09T00:04:00.575Z,74
2023-02-09T00:08:00.514Z,74
2023-02-09T00:12:00.512Z,74
2023-02-09T00:16:00.610Z,74
2023-02-09T00:20:00.511Z,75
2023-02-09T00:24:00.498Z,75
2023-02-09T00:28:00.564Z,75
2023-02-09T00:32:00.547Z,74
2023-02-09T00:36:00.476Z,75
2023-02-09T00:40:00.495Z,75
2023-02-09T00:44:00.518Z,75
2023-02-09T00:48:00.512Z,75
2023-02-09T00:52:00.499Z,75
2023-02-09T00:56:00.503Z,75
2023-02-09T01:00:00.490Z,75
2023-02-09T01:04:00.548Z,75
2023-02-09T01:08:00.467Z,75
2023-02-09T01:12:00.507Z,75
2023-02-09T01:16:00.499Z,75
2023-02-09T01:20:00.496Z,75
2023-02-09T01:24:00.502Z,75
2023-02-09T01:28:00.512Z,75
2023-02-09T01:32:00.643Z,75
2023-02-09T01:36:00.478Z,75
2023-02-09T01:40:00.490Z,75
2023-02-09T01:44:00.494Z,75
2023-02-09T01:48:00.523Z,76
2023-02-09T01:52:00.477Z,76
2023-02-09T01:56:00.479Z,76
2023-02-09T02:00:00.483Z,76
2023-02-09T02:04:00.491Z,76
2023-02-09T02:08:00.508Z,76
2023-02-09T02:12:00.478Z,76
2023-02-09T02:16:00.561Z,76
2023-02-09T02:20:00.484Z,76
2023-02-09T02:24:00.474Z,76
2023-02-09T02:28:00.522Z,76
2023-02-09T02:32:00.476Z,76
2023-02-09T02:36:00.465Z,76
2023-02-09T02:40:00.484Z,76
2023-02-09T02:44:00.496Z,76
2023-02-09T02:48:00.483Z,76
2023-02-09T02:52:00.534Z,76
2023-02-09T02:56:00.471Z,76
2023-02-09T03:00:00.491Z,76
2023-02-09T03:04:00.517Z,76
2023-02-09T03:08:00.505Z,76
2023-02-09T03:12:00.521Z,76
2023-02-09T03:16:00.609Z,76
2023-02-09T03:20:00.512Z,76
2023-02-09T03:24:00.502Z,76
2023-02-09T03:28:00.690Z,77
2023-02-09T03:32:00.554Z,77
2023-02-09T03:36:00.470Z,77
2023-02-09T03:40:00.503Z,77
2023-02-09T03:44:00.478Z,77
2023-02-09T03:48:00.493Z,77
2023-02-09T03:52:00.539Z,77
2023-02-09T03:56:00.476Z,78
2023-02-09T04:00:00.512Z,78
2023-02-09T04:04:00.484Z,79
2023-02-09T04:08:00.601Z,79
2023-02-09T04:12:00.498Z,79
2023-02-09T04:16:00.555Z,79
2023-02-09T04:20:00.512Z,79
2023-02-09T04:24:00.507Z,79
2023-02-09T04:28:00.529Z,79
2023-02-09T04:32:00.511Z,79
2023-02-09T04:36:00.473Z,79
2023-02-09T04:40:00.518Z,79
2023-02-09T04:44:00.529Z,78
2023-02-09T04:48:00.534Z,78
2023-02-09T04:52:00.509Z,78
2023-02-09T04:56:00.483Z,78
2023-02-09T05:00:00.778Z,78
2023-02-09T05:04:00.521Z,78
2023-02-09T05:08:00.547Z,77
2023-02-09T05:12:00.489Z,77
2023-02-09T05:16:00.521Z,77
2023-02-09T05:20:00.520Z,77
2023-02-09T05:24:00.563Z,77
2023-02-09T05:28:00.578Z,77
2023-02-09T05:32:00.608Z,77
2023-02-09T05:36:00.470Z,77
2023-02-09T05:40:00.520Z,77
2023-02-09T05:44:00.518Z,77
2023-02-09T05:48:00.528Z,77
2023-02-09T05:52:00.516Z,76
2023-02-09T05:56:00.482Z,76
2023-02-09T06:00:00.513Z,76
2023-02-09T06:04:00.507Z,76
2023-02-09T06:08:00.521Z,76
2023-02-09T06:12:00.489Z,76
2023-02-09T06:16:00.504Z,76
2023-02-09T06:20:00.515Z,76
2023-02-09T06:24:00.508Z,76
2023-02-09T06:28:00.559Z,76
2023-02-09T06:32:00.671Z,76
2023-02-09T06:36:00.468Z,76
2023-02-09T06:40:00.499Z,76
2023-02-09T06:44:00.526Z,76
2023-02-09T06:48:00.485Z,76
2023-02-09T06:52:00.505Z,76
2023-02-09T06:56:00.472Z,76
2023-02-09T07:00:00.501Z,76
2023-02-09T07:04:00.507Z,76
2023-02-09T07:08:00.500Z,77
2023-02-09T07:12:00.512Z,77
2023-02-09T07:16:00.527Z,77
2023-02-09T07:20:00.539Z,77
2023-02-09T07:24:00.474Z,77
2023-02-09T07:28:00.631Z,77
2023-02-09T07:32:00.564Z,77
2023-02-09T07:36:00.490Z,77
2023-02-09T07:40:00.503Z,78
2023-02-09T07:44:00.478Z,78
2023-02-09T07:48:00.513Z,78
2023-02-09T07:52:00.544Z,78
2023-02-09T07:56:00.542Z,78
2023-02-09T08:00:00.518Z,78
2023-02-09T08:04:00.469Z,78
2023-02-09T08:08:00.477Z,78
2023-02-09T08:12:00.574Z,78
2023-02-09T08:16:00.556Z,78
2023-02-09T08:20:00.495Z,77
2023-02-09T08:24:00.552Z,76
2023-02-09T08:28:00.589Z,75
2023-02-09T08:32:00.684Z,74
2023-02-09T08:36:00.497Z,73
2023-02-09T08:40:00.520Z,73
2023-02-09T08:44:00.513Z,70
2023-02-09T08:48:00.516Z,68
2023-02-09T08:52:00.521Z,67
2023-02-09T08:56:00.494Z,66
2023-02-09T09:00:00.541Z,64
2023-02-09T09:04:00.568Z,64
2023-02-09T09:08:00.497Z,63
2023-02-09T09:12:00.525Z,63
2023-02-09T09:16:00.485Z,63
2023-02-09T09:20:00.489Z,63
2023-02-09T09:24:00.514Z,63
2023-02-09T09:28:00.544Z,63
2023-02-09T09:32:00.473Z,62
2023-02-09T09:36:00.508Z,60
2023-02-09T09:40:00.498Z,59
2023-02-09T09:44:00.555Z,59
2023-02-09T09:48:00.512Z,59
2023-02-09T09:52:00.523Z,59
2023-02-09T09:56:00.474Z,59
2023-02-09T10:00:00.531Z,59
2023-02-09T10:04:00.508Z,59
2023-02-09T10:08:00.525Z,59
2023-02-09T10:12:00.522Z,58
2023-02-09T10:16:00.488Z,58
2023-02-09T10:20:00.488Z,57
2023-02-09T10:24:00.522Z,56
2023-02-09T10:28:00.510Z,55
2023-02-09T10:32:00.510Z,54
2023-02-09T10:36:00.477Z,54
2023-02-09T10:40:00.489Z,53
2023-02-09T10:44:00.477Z,54
2023-02-09T10:48:00.494Z,52
2023-02-09T10:52:00.486Z,51
2023-02-09T10:56:00.491Z,49
2023-02-09T11:00:00.508Z,49
2023-02-09T11:04:00.593Z,49
2023-02-09T11:08:00.487Z,50
2023-02-09T11:12:00.494Z,49
2023-02-09T11:16:00.489Z,45
2023-02-09T11:20:00.501Z,43
2023-02-09T11:24:00.518Z,44
2023-02-09T11:28:00.563Z,43
2023-02-09T11:32:00.562Z,43
2023-02-09T11:36:00.479Z,43
2023-02-09T11:40:00.510Z,41
2023-02-09T11:44:00.497Z,39
2023-02-09T11:48:00.491Z,37
2023-02-09T11:52:00.507Z,35
2023-02-09T11:56:00.488Z,37
2023-02-09T12:00:00.532Z,36
2023-02-09T12:04:00.518Z,35
2023-02-09T12:08:00.488Z,36
2023-02-09T12:12:00.496Z,35
2023-02-09T12:16:00.526Z,35
2023-02-09T12:20:00.507Z,35
2023-02-09T12:24:00.487Z,35
2023-02-09T12:28:00.513Z,37
2023-02-09T12:32:00.521Z,33
2023-02-09T12:36:00.509Z,36
2023-02-09T12:40:00.533Z,37
2023-02-09T12:44:00.508Z,37
2023-02-09T12:48:00.494Z,36
2023-02-09T12:52:00.504Z,36
2023-02-09T12:56:00.478Z,35
2023-02-09T13:00:00.502Z,35
2023-02-09T13:04:00.584Z,33
2023-02-09T13:08:00.502Z,33
2023-02-09T13:12:00.480Z,33
2023-02-09T13:16:00.485Z,35
2023-02-09T13:20:00.503Z,34
2023-02-09T13:24:00.530Z,35
2023-02-09T13:28:00.580Z,35
2023-02-09T13:32:00.581Z,33
2023-02-09T13:36:00.501Z,33
2023-02-09T13:40:00.515Z,36
2023-02-09T13:44:00.508Z,36
2023-02-09T13:48:00.562Z,35
2023-02-09T13:52:00.496Z,35
2023-02-09T13:56:00.680Z,36
2023-02-09T14:00:00.504Z,37
2023-02-09T14:04:00.496Z,39
2023-02-09T14:08:00.477Z,40
2023-02-09T14:12:00.495Z,41
2023-02-09T14:16:00.486Z,41
2023-02-09T14:20:00.565Z,42
2023-02-09T14:24:00.498Z,42
2023-02-09T14:28:00.530Z,43
2023-02-09T14:32:00.492Z,45
2023-02-09T14:36:00.473Z,45
2023-02-09T14:40:00.493Z,46
2023-02-09T14:44:00.483Z,46
2023-02-09T14:48:00.494Z,46
2023-02-09T14:52:00.508Z,47
2023-02-09T14:56:00.478Z,47
2023-02-09T15:00:00.493Z,47
2023-02-09T15:04:00.531Z,48
2023-02-09T15:08:00.497Z,48
2023-02-09T15:12:00.519Z,48
2023-02-09T15:16:00.525Z,49
2023-02-09T15:20:00.483Z,49
2023-02-09T15:24:00.484Z,49
2023-02-09T15:28:00.670Z,51
2023-02-09T15:32:00.488Z,51
2023-02-09T15:36:00.471Z,51
2023-02-09T15:40:00.503Z,52
2023-02-09T15:44:00.487Z,52
2023-02-09T15:48:00.523Z,52
2023-02-09T15:52:00.487Z,52
2023-02-09T15:56:00.480Z,53
2023-02-09T16:00:00.518Z,53
2023-02-09T16:04:12.832Z,54
2023-02-09T16:08:00.525Z,55
2023-02-09T16:12:00.564Z,55
2023-02-09T16:16:15.988Z,55
2023-02-09T16:20:00.507Z,55
2023-02-09T16:24:00.531Z,55
2023-02-09T16:28:00.506Z,55
2023-02-09T16:32:00.516Z,56
2023-02-09T16:36:00.498Z,56
2023-02-09T16:40:00.520Z,57
2023-02-09T16:44:00.513Z,57
2023-02-09T16:48:00.498Z,57
2023-02-09T16:52:00.507Z,58
2023-02-09T16:56:00.471Z,58
2023-02-09T17:00:00.520Z,58
2023-02-09T17:04:00.515Z,58
2023-02-09T17:08:00.542Z,58
2023-02-09T17:12:00.510Z,59
2023-02-09T17:16:00.603Z,59
2023-02-09T17:20:00.494Z,59
2023-02-09T17:24:00.508Z,59
2023-02-09T17:28:00.521Z,59
2023-02-09T17:32:00.521Z,59
2023-02-09T17:36:26.359Z,59
2023-02-09T17:40:00.503Z,59
2023-02-09T17:44:10.552Z,60
2023-02-09T17:48:00.483Z,60
2023-02-09T17:52:00.506Z,60
2023-02-09T17:56:00.501Z,60
2023-02-09T18:00:00.496Z,60
2023-02-09T18:04:00.531Z,60
2023-02-09T18:08:00.485Z,61
2023-02-09T18:12:00.488Z,60
2023-02-09T18:16:00.471Z,60
2023-02-09T18:20:00.501Z,60
2023-02-09T18:24:00.483Z,61
2023-02-09T18:28:00.554Z,61
2023-02-09T18:32:00.495Z,61
2023-02-09T18:36:00.477Z,61
2023-02-09T18:40:00.504Z,61
2023-02-09T18:44:00.493Z,61
2023-02-09T18:48:00.502Z,61
2023-02-09T18:52:00.504Z,61
2023-02-09T18:56:00.460Z,61
2023-02-09T19:00:00.515Z,61
2023-02-09T19:04:00.479Z,61
2023-02-09T19:08:00.535Z,61
2023-02-09T19:12:00.510Z,62
2023-02-09T19:16:00.564Z,61
2023-02-09T19:20:00.515Z,61
2023-02-09T19:24:00.492Z,61
2023-02-09T19:28:00.601Z,61
2023-02-09T19:32:00.489Z,61
2023-02-09T19:36:00.531Z,62
2023-02-09T19:40:00.505Z,62
2023-02-09T19:44:00.527Z,62
2023-02-09T19:48:00.504Z,62
2023-02-09T19:52:00.506Z,62
2023-02-09T19:56:00.524Z,62
2023-02-09T20:00:00.495Z,62
2023-02-09T20:04:00.506Z,62
2023-02-09T20:08:00.477Z,62
2023-02-09T20:12:00.510Z,62
2023-02-09T20:16:00.507Z,62
2023-02-09T20:20:00.506Z,63
2023-02-09T20:24:00.509Z,63
2023-02-09T20:28:00.560Z,63
2023-02-09T20:32:00.500Z,63
2023-02-09T20:36:00.475Z,63
2023-02-09T20:40:00.480Z,63
2023-02-09T20:44:00.505Z,63
2023-02-09T20:48:00.490Z,63
2023-02-09T20:52:00.511Z,63
2023-02-09T20:56:00.486Z,63
2023-02-09T21:00:00.569Z,64
2023-02-09T21:04:00.503Z,65
2023-02-09T21:08:00.731Z,65
2023-02-09T21:12:00.500Z,64
2023-02-09T21:16:01.512Z,64
2023-02-09T21:20:00.517Z,65
2023-02-09T21:24:00.546Z,65
2023-02-09T21:28:00.563Z,65
2023-02-09T21:32:00.557Z,65
2023-02-09T21:36:00.477Z,65
2023-02-09T21:40:00.508Z,66
2023-02-09T21:44:00.504Z,66
2023-02-09T21:48:00.519Z,66
2023-02-09T21:52:00.499Z,66
2023-02-09T21:56:00.485Z,66
2023-02-09T22:00:00.516Z,67
2023-02-09T22:04:00.577Z,67
2023-02-09T22:08:00.509Z,67
2023-02-09T22:12:00.495Z,67
2023-02-09T22:16:00.476Z,67
2023-02-09T22:20:00.482Z,67
2023-02-09T22:24:00.481Z,67
2023-02-09T22:28:00.514Z,67
2023-02-09T22:32:00.500Z,67
2023-02-09T22:36:00.471Z,67
2023-02-09T22:40:00.500Z,68
2023-02-09T22:44:00.485Z,68
2023-02-09T22:48:00.497Z,68
2023-02-09T22:52:00.499Z,69
2023-02-09T22:56:00.478Z,69
2023-02-09T23:00:00.493Z,69
2023-02-09T23:04:00.539Z,69
2023-02-09T23:08:00.501Z,69
2023-02-09T23:12:00.506Z,69
2023-02-09T23:16:00.507Z,69
2023-02-09T23:20:00.516Z,69
2023-02-09T23:24:00.511Z,69
2023-02-09T23:28:00.538Z,68
2023-02-09T23:32:00.520Z,68
2023-02-09T23:36:00.770Z,68
2023-02-09T23:40:00.510Z,68
2023-02-09T23:44:00.494Z,68
2023-02-09T23:48:00.484Z,68
2023-02-09T23:52:00.506Z,67
2023-02-09T23:56:00.709Z,67
